Date,TemperatureHighF,TemperatureAvgF,TemperatureLowF,DewpointHighF,DewpointAvgF,DewpointLowF,HumidityHigh,HumidityAvg,HumidityLow,PressureMaxIn,PressureMinIn,WindSpeedMaxMPH,WindSpeedAvgMPH,GustSpeedMaxMPH,PrecipitationSumIn
2014-1-1,59.0,52.2,46.8,52.3,48.4,43.9,94,87,77,30.11,30.02,4,1,5,0.00
2014-1-2,58.8,53.4,46.2,54.1,50.5,44.9,98,90,78,30.13,30.06,8,1,8,0.06
2014-1-3,60.6,55.7,51.1,58.8,54.1,50.5,99,95,90,30.19,30.11,10,1,10,0.02
2014-1-4,58.3,55.5,54.0,57.7,54.8,53.1,99,98,97,30.20,30.14,13,2,13,0.06
2014-1-5,59.4,51.8,45.3,57.3,49.5,44.4,98,92,80,29.93,29.77,7,2,16,0.38
2014-1-6,59.2,50.6,44.6,53.9,47.8,43.5,97,90,80,30.20,29.93,3,0,5,0.01
2014-1-7,58.3,49.3,44.2,54.9,48.1,43.4,97,96,87,30.27,30.21,6,1,6,0.00
2014-1-8,60.1,51.2,43.7,55.0,48.5,42.6,96,91,78,30.36,30.24,6,0,6,0.00
2014-1-9,57.7,53.5,48.6,54.8,50.7,47.5,96,90,86,30.26,30.13,5,1,6,0.00
2014-1-10,57.7,53.1,46.6,53.6,49.4,44.7,93,87,77,30.17,29.92,7,0,7,0.00
2014-1-11,58.6,51.1,45.5,53.3,48.1,43.6,95,89,80,30.21,30.14,8,0,8,0.00
2014-1-12,57.0,51.4,45.7,53.7,48.9,44.6,97,91,85,30.18,30.07,4,0,4,0.00
2014-1-13,62.4,53.9,48.2,54.1,49.2,46.0,93,85,70,30.11,29.89,8,1,8,0.00
2014-1-14,58.3,53.2,50.0,56.0,52.0,48.9,99,96,89,29.89,29.77,15,2,15,0.44
2014-1-15,59.5,50.4,43.5,56.7,48.7,42.6,99,94,84,29.98,29.78,4,0,5,0.01
2014-1-16,58.5,52.1,47.5,54.3,49.3,46.1,96,90,82,30.06,30.01,2,0,3,0.00
2014-1-17,59.9,56.5,46.8,55.3,52.4,45.7,97,86,81,30.03,29.91,12,1,12,0.00
2014-1-18,65.7,61.9,56.8,55.8,53.4,51.2,89,74,62,29.92,29.70,8,2,17,0.00
2014-1-19,63.7,60.8,57.2,57.2,55.1,52.8,90,82,74,29.73,29.56,14,4,17,0.01
2014-1-20,59.5,54.7,50.5,56.0,52.1,49.2,97,91,82,29.58,29.43,16,3,17,0.28
2014-1-21,55.8,52.8,49.3,54.5,50.9,47.9,98,93,88,29.81,29.50,18,3,18,0.45
2014-1-22,57.0,50.2,45.7,53.9,47.4,42.3,97,90,78,29.99,29.81,12,1,12,0.07
2014-1-23,53.8,51.0,46.9,52.9,49.5,44.2,98,94,89,30.03,29.76,4,1,8,0.19
2014-1-24,56.5,52.6,48.4,55.1,50.8,45.6,99,94,81,29.74,29.44,27,4,27,0.51
2014-1-25,54.1,47.2,41.2,48.7,39.8,34.8,98,76,62,29.77,29.46,13,2,14,0.05
2014-1-26,49.3,43.3,37.6,40.3,35.9,31.3,81,75,69,29.75,29.64,6,1,11,0.00
2014-1-27,52.5,46.2,38.3,45.3,41.5,32.4,95,84,70,29.66,29.31,6,1,9,0.04
2014-1-28,53.4,47.6,44.2,51.5,46.6,43.2,98,96,88,29.38,29.32,9,2,9,0.05
2014-1-29,55.2,50.2,38.8,51.7,46.1,34.9,91,86,76,29.81,29.60,13,1,13,0.18
2014-1-30,62.8,58.2,50.9,53.9,50.2,45.9,83,75,62,29.83,29.76,20,3,20,0.02
2014-1-31,66.4,62.3,57.0,56.5,52.9,50.4,87,72,57,29.81,29.73,18,3,18,0.02
2014-2-1,62.6,57.5,54.1,59.0,55.7,53.9,99,94,85,29.83,29.62,10,1,10,0.02
2014-2-2,58.8,56.2,54.0,57.8,54.9,52.8,99,95,91,29.70,29.62,1,0,3,0.11
2014-2-3,56.5,52.4,50.2,55.9,51.5,49.0,99,97,95,29.93,29.77,6,0,6,0.31
2014-2-4,58.1,51.8,48.0,53.0,50.1,47.8,99,94,81,30.00,29.93,5,0,8,0.09
2014-2-5,57.2,52.9,50.2,56.2,51.2,47.9,99,94,86,30.00,29.75,13,1,13,0.38
2014-2-6,58.8,54.6,50.9,54.1,51.0,48.9,97,88,71,29.88,29.76,18,3,18,0.38
2014-2-7,61.0,55.8,45.1,53.8,50.5,43.2,94,83,74,30.07,29.85,8,1,11,0.12
2014-2-8,60.6,55.5,53.1,55.8,50.6,47.4,95,84,72,29.91,29.75,13,1,13,0.19
2014-2-9,57.9,53.3,46.6,55.5,49.3,43.9,97,86,74,29.91,29.67,26,4,27,0.54
2014-2-10,62.1,56.0,46.8,55.7,51.6,44.3,94,85,66,29.82,29.65,7,1,17,0.05
2014-2-11,63.1,58.5,55.8,59.3,56.4,54.2,95,93,84,29.69,29.54,8,1,8,0.00
2014-2-12,60.3,53.1,45.5,51.8,48.3,43.6,93,84,71,29.90,29.62,8,2,15,0.09
2014-2-13,60.3,54.5,44.6,53.2,49.0,43.0,95,82,65,29.97,29.45,9,1,12,0.00
2014-2-14,64.6,60.6,55.0,57.4,53.3,50.1,93,78,63,29.86,29.77,21,4,21,0.00
2014-2-15,63.9,55.3,47.1,54.9,49.9,44.0,93,82,70,30.07,29.96,3,0,8,0.00
2014-2-16,70.3,58.8,48.4,57.0,52.7,46.4,94,82,59,30.06,30.00,7,2,7,0.00
2014-2-17,70.7,60.0,50.2,57.7,50.1,44.3,89,71,54,30.08,30.02,9,1,9,0.00
2014-2-18,73.6,62.0,51.1,55.4,50.0,43.6,77,65,48,30.07,29.91,8,1,11,0.00
2014-2-19,65.8,59.4,55.0,56.6,53.7,45.5,98,82,60,29.96,29.87,15,2,15,0.00
2014-2-20,59.4,55.0,51.4,58.4,54.4,51.2,99,98,95,29.90,29.80,4,1,7,0.41
2014-2-21,60.3,53.9,48.9,59.4,51.6,47.3,99,92,80,29.90,29.80,13,1,13,0.41
2014-2-22,60.4,52.4,44.1,56.4,48.7,41.9,97,88,75,30.01,29.90,14,1,14,0.13
2014-2-23,61.2,51.8,44.1,51.9,44.2,39.4,93,76,57,30.04,29.97,8,1,8,0.02
2014-2-24,59.4,51.5,43.9,44.8,42.1,38.9,84,71,57,30.07,30.01,8,1,8,0.00
2014-2-25,62.4,53.0,43.5,48.1,44.9,39.0,86,75,59,30.12,30.07,8,1,8,0.00
2014-2-26,60.4,54.8,50.2,49.4,48.0,46.9,95,78,65,30.16,30.12,6,1,10,0.24
2014-2-27,58.6,52.3,46.4,52.5,48.4,44.1,97,87,71,30.16,29.97,6,1,8,0.35
2014-2-28,55.9,50.7,46.8,50.2,47.6,44.8,94,89,80,29.97,29.56,9,1,9,0.07
2014-3-1,52.3,46.7,41.2,49.5,45.5,40.4,98,96,90,29.55,29.36,18,2,18,0.65
2014-3-2,53.8,47.4,41.7,50.2,44.0,39.5,98,88,79,29.48,29.36,13,1,13,0.06
2014-3-3,59.0,52.3,41.5,49.7,46.0,39.4,93,80,64,29.49,29.24,6,1,10,0.17
2014-3-4,57.6,51.8,48.4,51.1,47.4,45.2,92,85,72,29.29,29.25,18,4,18,0.26
2014-3-5,61.2,53.4,44.8,58.8,45.4,41.9,100,75,58,29.78,29.47,10,2,14,0.00
2014-3-6,61.2,55.5,50.5,47.8,44.9,42.0,80,68,58,29.96,29.78,14,3,19,0.00
2014-3-7,62.6,55.4,49.1,50.2,45.6,42.5,79,70,59,30.04,29.93,13,3,13,0.00
2014-3-8,61.2,56.5,49.6,47.6,45.7,42.7,78,67,60,30.08,30.01,17,6,18,0.00
2014-3-9,64.9,57.4,52.3,46.2,43.4,40.9,71,60,50,30.16,29.96,12,3,18,0.00
2014-3-10,57.2,52.2,47.1,45.6,42.6,39.9,76,70,62,29.99,29.90,13,2,13,0.00
2014-3-11,56.1,51.6,47.1,44.6,41.9,38.7,78,69,61,30.23,29.96,12,1,12,0.00
2014-3-12,66.0,55.5,46.2,44.4,42.6,38.5,80,63,43,30.29,30.23,8,1,10,0.00
2014-3-13,67.6,56.4,45.9,48.0,44.3,40.0,80,65,46,30.27,30.17,10,1,10,0.00
2014-3-14,66.0,57.2,49.1,50.1,46.8,42.5,78,69,55,30.22,30.17,10,1,10,0.00
2014-3-15,67.3,57.4,48.4,63.1,49.5,45.6,100,76,53,30.07,29.85,12,1,13,0.00
2014-3-16,66.9,58.0,49.3,57.9,53.0,45.9,100,84,66,30.03,29.87,6,1,9,0.00
2014-3-17,62.4,56.2,52.9,58.5,54.8,52.1,100,95,84,30.12,30.04,9,2,9,0.00
2014-3-18,66.9,58.8,51.6,58.2,54.4,50.2,96,86,71,30.16,30.08,3,1,9,0.00
2014-3-19,66.2,58.7,52.3,58.1,53.2,49.8,91,82,71,30.13,30.05,11,1,11,0.00
2014-3-20,74.8,65.1,52.7,57.8,55.5,49.8,91,73,53,30.15,30.11,9,2,9,0.00
2014-3-21,69.8,60.6,52.5,57.5,53.5,48.5,91,78,58,30.12,30.02,8,1,10,0.00
2014-3-22,67.1,59.9,52.9,57.8,54.4,50.0,91,82,68,30.04,29.78,11,2,11,0.00
2014-3-23,62.6,56.5,49.1,57.0,52.1,43.8,94,85,74,29.79,29.65,18,3,23,0.22
2014-3-24,56.1,48.0,42.3,46.7,43.0,40.1,94,83,62,29.75,29.67,22,2,22,0.18
2014-3-25,58.3,48.9,42.4,50.8,45.9,40.8,97,90,72,29.77,29.60,18,1,18,0.28
2014-3-26,61.9,54.3,44.1,53.3,48.5,43.3,98,81,67,29.70,29.46,10,2,15,0.19
2014-3-27,55.6,51.7,49.5,52.5,49.4,47.2,94,92,86,29.52,29.47,12,2,12,0.45
2014-3-28,63.9,57.6,46.4,51.6,49.2,43.0,89,74,61,29.82,29.64,14,2,14,0.00
2014-3-29,70.3,62.2,51.3,68.7,49.8,44.3,100,65,51,30.04,29.99,15,2,15,0.00
2014-3-30,71.2,61.4,51.4,52.0,47.6,44.3,79,62,43,30.01,29.91,13,1,13,0.00
2014-3-31,70.7,60.5,50.2,54.5,50.3,42.9,90,70,49,29.94,29.86,7,1,11,0.00
2014-4-1,67.8,58.9,51.1,57.2,53.0,48.8,93,81,65,29.97,29.91,12,2,12,0.00
2014-4-2,67.8,58.9,52.2,57.8,53.4,49.6,92,82,66,29.96,29.84,11,2,9,0.00
2014-4-3,71.2,61.8,50.9,57.5,50.9,46.5,93,69,50,29.84,29.56,8,1,13,0.00
2014-4-4,67.1,63.5,59.7,57.3,54.3,48.5,91,73,57,29.57,29.53,9,3,13,0.19
2014-4-5,72.0,63.2,58.1,57.2,52.4,50.2,86,68,52,29.73,29.56,10,3,19,0.06
2014-4-6,73.0,63.5,56.8,54.8,51.9,49.3,78,67,52,29.90,29.72,15,3,15,0.00
2014-4-7,75.4,63.9,54.7,56.7,52.8,48.6,82,68,51,30.03,29.89,6,1,9,0.00
2014-4-8,71.1,62.2,54.5,59.7,55.8,48.8,90,80,64,30.07,29.95,13,2,13,0.00
2014-4-9,68.7,61.9,57.4,60.3,57.7,55.1,93,87,73,29.95,29.91,13,3,13,0.00
2014-4-10,71.6,61.5,53.2,48.3,44.8,41.4,76,56,35,30.01,29.93,7,2,13,0.00
2014-4-11,68.7,60.9,53.1,58.5,54.2,46.4,89,79,69,29.98,29.92,12,1,12,0.00
2014-4-12,68.2,61.2,55.2,59.1,55.3,52.5,91,82,65,29.98,29.88,13,1,13,0.00
2014-4-13,67.6,60.3,53.4,60.2,55.0,47.7,95,83,70,29.94,29.85,7,1,14,0.12
2014-4-14,71.4,61.3,52.0,55.3,52.0,46.5,87,73,49,29.98,29.82,12,2,12,0.00
2014-4-15,64.9,55.3,44.8,61.8,51.2,41.3,94,86,78,29.82,29.69,14,3,15,0.28
2014-4-16,60.8,53.4,47.3,43.8,40.6,37.9,80,62,46,29.92,29.78,28,3,28,0.00
2014-4-17,62.2,53.9,47.7,42.6,40.6,38.7,72,61,45,29.87,29.73,10,2,13,0.00
2014-4-18,63.7,56.0,49.5,48.2,44.7,40.2,83,66,51,29.75,29.64,13,1,13,0.00
2014-4-19,61.7,58.5,52.3,58.3,53.9,47.9,92,85,72,29.69,29.59,17,2,17,0.07
2014-4-20,68.2,62.1,59.2,58.4,55.1,50.2,89,78,54,29.64,29.57,12,3,12,0.00
2014-4-21,77.5,66.0,58.5,62.8,56.7,52.0,100,74,48,29.77,29.51,8,2,14,0.00
2014-4-22,77.4,66.5,56.3,63.4,59.2,54.0,93,78,54,29.83,29.70,13,1,13,0.11
2014-4-23,64.9,60.7,56.3,59.4,56.6,53.0,97,87,75,29.79,29.73,15,2,15,0.35
2014-4-24,72.7,62.5,54.5,60.7,56.8,52.1,93,82,65,29.79,29.75,8,2,8,0.00
2014-4-25,71.2,64.1,56.3,62.9,59.0,54.0,93,84,70,29.80,29.68,9,1,15,0.00
2014-4-26,71.8,61.8,58.3,61.5,58.6,56.3,98,90,69,29.71,29.62,15,2,15,0.18
2014-4-27,66.2,59.6,54.7,63.4,57.4,52.7,99,93,78,29.67,29.54,16,2,16,0.13
2014-4-28,65.8,59.3,53.1,59.5,55.4,51.8,98,87,74,29.68,29.53,10,2,13,0.05
2014-4-29,63.3,56.8,50.5,57.5,53.4,48.9,99,89,77,29.74,29.61,13,2,13,1.08
2014-4-30,66.4,59.6,53.1,61.2,56.0,51.3,97,88,74,29.76,29.69,13,2,13,0.17
2014-5-1,70.2,62.7,54.0,60.3,56.6,53.1,98,81,69,29.76,29.69,11,1,11,0.17
2014-5-2,63.3,59.6,54.7,59.4,56.4,52.8,97,89,82,29.74,29.58,10,1,11,0.21
2014-5-3,63.7,56.8,51.1,59.4,53.8,49.4,98,90,79,29.58,29.48,12,1,12,0.32
2014-5-4,66.9,59.5,50.7,57.3,51.0,46.2,96,74,61,29.80,29.52,8,2,10,0.00
2014-5-5,71.2,62.4,55.0,56.4,52.1,46.3,90,70,52,29.96,29.79,10,2,14,0.00
2014-5-6,73.0,63.6,52.7,61.7,57.0,50.0,92,80,63,30.07,29.96,10,1,10,0.00
2014-5-7,70.2,63.6,56.3,61.9,57.8,54.0,93,82,70,30.05,29.92,12,1,12,0.00
2014-5-8,73.0,64.8,56.8,60.9,57.8,53.9,92,79,60,29.95,29.89,12,1,13,0.00
2014-5-9,75.4,64.8,57.2,59.8,57.6,54.9,93,79,54,29.93,29.88,8,1,8,0.00
2014-5-10,73.4,67.0,61.3,63.9,61.3,59.0,93,82,71,29.94,29.89,6,1,11,0.00
2014-5-11,74.1,67.4,60.4,63.5,60.2,56.8,91,78,64,29.90,29.80,13,1,13,0.00
2014-5-12,72.9,66.7,61.0,64.2,60.7,55.4,90,81,68,29.87,29.80,13,2,13,0.00
2014-5-13,73.2,66.0,59.9,60.0,56.7,53.8,85,72,59,29.85,29.65,7,1,8,0.00
2014-5-14,69.4,63.4,54.7,54.8,49.2,44.3,81,61,48,29.88,29.65,14,2,14,0.00
2014-5-15,72.1,59.6,53.8,50.7,47.8,43.5,80,66,41,29.87,29.80,13,1,13,0.27
2014-5-16,65.7,57.8,54.5,53.1,50.5,45.9,89,77,60,29.86,29.77,12,1,12,0.09
2014-5-17,68.4,60.8,53.2,58.2,54.6,50.3,92,81,66,29.97,29.83,8,1,15,0.05
2014-5-18,75.9,65.5,52.9,59.2,53.9,50.0,91,68,44,29.98,29.88,6,1,10,0.00
2014-5-19,72.5,65.3,60.4,60.5,55.8,51.8,85,72,59,29.91,29.85,8,1,8,0.00
2014-5-20,78.4,69.3,59.4,63.4,59.5,55.7,89,72,56,29.97,29.90,13,2,13,0.00
2014-5-21,81.5,72.0,61.2,65.7,62.0,56.9,87,72,55,29.97,29.90,8,1,9,0.00
2014-5-22,83.8,73.9,62.8,67.6,63.0,58.7,90,70,55,29.93,29.80,8,1,9,0.00
2014-5-23,77.9,71.3,65.7,65.2,62.2,57.1,85,73,63,29.88,29.75,9,1,9,0.00
2014-5-24,81.3,72.4,65.5,66.9,64.0,61.2,87,75,59,29.89,29.82,10,1,11,0.00
2014-5-25,85.5,74.9,66.0,69.1,64.9,61.4,86,72,57,29.85,29.76,6,1,9,0.00
2014-5-26,79.9,72.5,65.5,69.1,62.8,59.7,83,72,51,29.87,29.79,13,3,14,0.00
2014-5-27,75.9,67.4,61.5,63.3,57.9,52.8,86,72,63,29.86,29.81,14,2,15,0.00
2014-5-28,73.2,66.5,60.3,60.8,56.7,52.7,78,71,61,29.82,29.70,11,2,15,0.00
2014-5-29,71.6,66.3,60.6,62.5,58.5,55.1,89,76,66,29.76,29.70,13,2,13,0.21
2014-5-30,75.4,67.3,60.1,63.5,60.2,57.1,91,79,62,29.81,29.74,13,2,13,0.00
2014-5-31,70.9,64.5,60.8,63.5,60.1,57.5,89,86,76,29.80,29.77,8,1,8,0.00
2014-6-1,75.9,67.1,59.0,55.9,53.3,50.1,84,62,47,29.86,29.80,6,1,12,0.24
2014-6-2,78.3,70.1,57.9,57.5,54.5,49.7,75,59,47,29.85,29.73,15,4,15,0.00
2014-6-3,81.9,72.6,61.3,56.4,54.0,50.7,68,53,38,29.73,29.65,14,2,14,0.00
2014-6-4,80.8,72.2,63.0,64.4,57.4,50.6,80,60,44,29.83,29.68,14,2,17,0.00
2014-6-5,77.4,70.8,63.3,66.2,62.8,58.4,87,76,65,29.93,29.82,17,2,17,0.00
2014-6-6,85.3,74.5,62.6,66.1,61.3,57.4,87,65,46,29.94,29.87,6,1,10,0.00
2014-6-7,86.0,74.4,66.9,68.8,64.6,60.5,81,72,55,29.90,29.87,9,1,9,0.00
2014-6-8,92.8,81.6,68.0,67.3,62.9,56.4,82,55,38,29.89,29.83,8,2,13,0.00
2014-6-9,95.0,84.6,73.0,92.1,63.8,56.2,100,51,40,29.87,29.81,18,3,18,0.00
2014-6-10,94.6,78.5,68.5,66.6,64.2,59.3,87,64,39,29.89,29.81,17,2,17,0.27
2014-6-11,88.9,79.6,68.5,71.3,68.9,63.8,87,71,53,29.93,29.86,6,1,10,0.00
2014-6-12,90.3,78.7,71.1,73.7,69.5,66.0,85,74,55,29.89,29.87,8,1,8,0.00
2014-6-13,88.5,80.1,72.3,75.6,71.8,67.4,90,76,61,29.80,29.65,5,1,11,0.00
2014-6-14,84.7,76.3,70.0,73.9,68.9,63.8,90,78,68,29.65,29.57,15,2,15,0.01
2014-6-15,84.6,75.4,68.4,72.6,68.1,63.3,89,79,64,29.66,29.56,13,2,13,0.14
2014-6-16,75.0,67.4,63.3,67.7,65.1,60.8,99,93,72,29.77,29.63,20,2,22,0.14
2014-6-17,79.9,73.0,65.1,72.0,67.7,64.8,99,84,71,29.69,29.63,15,2,15,0.13
2014-6-18,79.5,71.9,65.7,70.7,66.0,62.8,95,82,66,29.77,29.67,14,2,14,0.05
2014-6-19,75.4,67.4,61.7,68.9,63.1,58.4,95,86,72,29.76,29.70,20,2,20,0.18
2014-6-20,82.6,72.2,60.1,68.5,63.7,57.4,92,76,52,29.79,29.73,11,2,11,0.00
2014-6-21,80.4,73.6,66.9,69.8,67.0,63.1,89,80,70,29.83,29.77,12,2,12,0.00
2014-6-22,85.5,77.7,66.6,69.6,67.2,63.2,90,72,57,29.93,29.88,8,2,9,0.00
2014-6-23,86.5,78.2,67.3,71.3,65.8,61.0,87,67,48,30.00,29.87,6,1,11,0.00
2014-6-24,90.7,81.2,68.7,69.0,63.3,58.9,79,56,38,29.88,29.64,8,1,8,0.00
2014-6-25,84.4,77.5,71.6,74.0,70.8,62.8,93,80,65,29.80,29.62,15,2,16,0.04
2014-6-26,86.5,77.0,69.8,73.0,69.0,64.8,95,78,55,29.75,29.63,11,3,15,0.00
2014-6-27,83.5,77.1,69.4,69.4,67.6,65.9,89,73,58,29.89,29.72,12,2,12,0.00
2014-6-28,84.6,77.3,69.8,73.6,69.8,66.3,89,78,67,29.90,29.80,15,2,15,0.00
2014-6-29,86.5,79.5,69.3,72.1,67.3,61.3,91,68,48,29.81,29.56,9,2,11,0.00
2014-6-30,80.1,74.8,68.2,73.8,66.5,62.8,100,76,64,29.80,29.58,20,4,20,0.05
2014-7-1,82.6,75.1,66.6,68.4,65.2,61.2,85,72,58,29.87,29.80,12,2,12,0.00
2014-7-2,84.6,75.6,68.0,79.5,64.1,56.9,100,70,39,29.98,29.85,12,2,12,0.00
2014-7-3,90.3,78.8,68.0,72.0,66.4,61.0,100,67,47,30.02,29.90,12,2,12,0.00
2014-7-4,92.7,82.7,73.9,73.7,69.0,64.3,80,64,49,29.90,29.75,8,1,10,0.00
2014-7-5,85.1,78.3,72.0,75.2,70.4,66.5,89,77,67,29.76,29.70,16,3,16,0.00
2014-7-6,84.4,75.5,70.3,79.9,70.6,66.9,100,85,69,29.76,29.74,13,1,13,0.00
2014-7-7,89.2,82.0,70.7,74.5,71.1,67.0,89,71,57,29.83,29.74,8,1,13,0.00
2014-7-8,84.2,79.1,73.6,75.9,68.6,61.1,100,71,59,29.71,29.65,13,5,21,0.01
2014-7-9,96.1,75.0,50.0,96.1,63.6,50.0,100,68,59,29.66,29.61,10,4,19,0.00
2014-7-10,75.7,70.8,63.9,65.8,61.9,58.6,83,74,65,29.56,29.51,10,3,19,0.14
2014-7-11,79.5,71.8,62.1,65.8,62.8,57.8,87,74,57,29.65,29.53,9,2,12,0.00
2014-7-12,79.9,74.8,68.4,69.4,67.0,64.3,87,77,66,29.74,29.64,13,2,13,0.00
2014-7-13,79.5,73.0,65.5,67.5,64.8,62.9,93,76,60,29.76,29.68,17,2,17,0.05
2014-7-14,80.2,71.1,64.6,70.4,65.6,61.7,100,84,64,29.73,29.68,17,2,17,0.73
2014-7-15,86.2,74.8,64.0,70.0,66.5,62.9,96,76,56,29.77,29.70,21,2,21,0.02
2014-7-16,90.1,78.8,68.2,70.7,68.1,63.5,100,71,52,29.79,29.73,10,2,14,0.00
2014-7-17,90.0,80.8,70.7,74.0,68.8,65.1,85,68,54,29.79,29.75,11,2,11,0.00
2014-7-18,90.5,82.0,71.6,71.8,68.7,65.6,84,65,51,29.80,29.72,16,3,16,0.00
2014-7-19,91.8,82.8,71.8,71.7,67.8,65.1,82,62,47,29.79,29.75,6,1,13,0.00
2014-7-21,84.2,79.7,73.4,72.8,70.2,64.3,90,74,57,29.70,29.61,18,6,18,0.13
2014-7-22,79.0,69.9,65.5,71.7,66.7,64.0,98,90,73,29.57,29.49,12,1,12,0.76
2014-7-23,84.0,75.9,64.9,70.0,67.5,63.5,96,76,58,29.64,29.53,8,2,11,0.01
2014-7-24,84.6,76.5,69.4,75.5,70.3,65.9,94,82,65,29.68,29.61,18,2,18,0.34
2014-7-25,86.2,77.8,70.0,73.9,71.0,67.9,94,80,64,29.71,29.66,10,2,11,0.00
2014-7-26,86.4,78.2,70.3,73.9,70.7,67.3,91,78,59,29.69,29.55,10,2,10,0.01
2014-7-27,83.7,77.3,71.2,74.1,69.7,65.0,91,78,68,29.65,29.54,17,2,17,0.08
2014-7-28,83.8,77.4,70.5,73.5,70.7,67.0,90,80,69,29.68,29.63,13,2,13,0.00
2014-7-29,86.7,79.7,71.2,73.9,71.9,67.8,91,78,65,29.63,29.42,13,2,13,0.02
2014-7-30,78.8,73.2,67.6,71.0,66.9,64.1,95,81,63,29.55,29.43,17,4,19,0.54
2014-7-31,82.9,75.0,66.2,71.3,68.5,65.2,97,81,62,29.60,29.52,11,2,11,0.01
2014-8-1,84.4,76.8,69.1,74.4,71.0,66.0,92,83,68,29.60,29.54,10,1,11,0.00
2014-8-2,84.0,77.3,72.5,76.9,73.5,70.2,93,88,78,29.65,29.59,11,1,11,0.00
2014-8-3,90.7,80.0,72.9,74.4,71.4,68.4,93,76,53,29.72,29.62,7,1,11,0.00
2014-8-4,91.4,81.5,72.3,76.7,70.7,65.7,87,70,55,29.68,29.65,13,2,13,0.00
2014-8-5,88.0,79.9,71.8,76.2,70.9,62.5,84,75,62,29.94,29.58,10,2,10,0.00
2014-8-6,86.9,78.5,70.9,72.6,69.4,64.9,86,74,60,29.60,29.55,8,1,11,0.06
2014-8-7,87.8,79.6,72.1,71.4,68.1,63.7,84,69,51,29.67,29.57,9,2,14,0.00
2014-8-8,87.3,80.3,72.5,74.9,72.0,68.1,90,76,62,29.74,29.67,10,1,10,0.00
2014-8-9,87.8,78.8,72.3,77.0,73.1,69.5,91,83,70,29.77,29.73,13,2,13,0.00
2014-8-10,91.4,81.5,71.4,74.0,69.2,64.2,80,67,51,29.77,29.70,6,1,10,0.00
2014-8-11,93.9,82.5,71.4,71.2,67.7,63.7,81,63,38,29.73,29.66,5,1,10,0.00
2014-8-12,90.5,80.3,72.5,71.1,67.1,63.5,75,65,50,29.68,29.65,10,2,10,0.00
2014-8-13,91.2,82.3,72.9,74.6,70.1,64.1,84,68,50,29.63,29.55,6,1,13,0.00
2014-8-14,86.0,78.7,71.2,75.7,68.4,62.6,82,71,53,29.69,29.56,10,2,17,0.00
2014-8-15,82.2,76.5,67.8,68.3,65.4,61.1,80,69,56,29.72,29.67,18,2,18,0.00
2014-8-16,81.1,76.6,69.3,69.1,66.1,63.0,82,70,60,29.73,29.67,17,4,17,0.02
2014-8-17,84.7,75.5,66.6,67.1,63.9,60.0,80,68,54,29.73,29.69,8,2,12,0.00
2014-8-18,84.6,74.6,66.2,69.9,65.0,59.5,84,73,51,29.74,29.69,12,2,12,0.00
2014-8-19,84.2,76.8,66.4,68.3,64.6,61.4,85,67,50,29.72,29.63,11,1,14,0.00
2014-8-20,86.5,79.9,72.0,76.5,71.0,62.8,89,75,60,30.00,28.50,14,2,11,0.01
2014-8-21,88.0,81.0,74.3,77.1,74.6,71.0,90,81,68,29.99,29.94,10,2,13,0.00
2014-8-22,88.7,79.6,72.3,77.1,72.0,68.6,92,79,56,30.01,29.94,11,2,11,0.00
2014-8-23,86.2,76.8,69.6,73.5,69.9,65.9,89,80,64,29.99,29.96,13,2,13,0.00
2014-8-24,83.7,76.7,69.1,72.7,66.9,62.3,92,73,58,30.01,29.94,9,2,14,0.00
2014-8-25,83.3,75.5,67.5,71.2,67.0,62.1,86,75,64,30.06,29.98,14,3,14,0.00
2014-8-26,83.3,76.6,68.7,72.0,68.0,64.5,87,75,64,30.03,29.85,13,2,13,0.09
2014-8-27,85.8,77.3,69.4,74.0,70.1,64.6,89,79,64,29.96,29.89,12,2,12,0.00
2014-8-28,89.8,80.2,71.1,75.0,71.3,67.7,90,75,53,29.94,29.89,10,2,10,0.00
2014-8-29,88.9,81.0,73.2,73.0,69.9,67.1,82,70,51,29.99,29.94,12,1,12,0.00
2014-8-30,85.3,77.9,73.0,74.8,70.6,67.6,84,79,69,30.00,29.97,8,1,8,0.00
2014-8-31,86.9,79.2,71.6,75.4,71.0,66.2,85,76,61,29.95,29.76,6,1,11,0.00
2014-9-1,81.0,70.7,60.8,76.3,64.9,58.2,99,83,65,29.76,29.49,18,3,19,0.57
2014-9-2,82.0,71.5,60.8,68.8,64.3,58.5,94,79,62,29.75,29.58,13,2,13,0.12
2014-9-3,82.0,72.3,66.0,66.9,64.2,59.3,91,77,58,29.83,29.72,9,1,9,0.13
2014-9-4,82.0,74.2,66.2,69.2,66.2,63.2,91,77,62,29.89,29.82,8,1,8,0.00
2014-9-5,81.7,72.7,68.9,71.1,68.4,65.0,96,87,66,29.88,29.78,6,1,10,0.37
2014-9-6,81.7,71.3,66.0,72.8,68.0,65.1,98,90,68,29.87,29.76,9,1,9,0.17
2014-9-7,82.9,74.1,65.3,71.7,68.1,64.4,97,82,68,29.96,29.84,7,1,10,0.00
2014-9-8,83.3,74.6,68.2,74.2,69.7,65.8,93,85,73,30.03,29.95,13,2,13,0.00
2014-9-9,84.2,75.6,68.0,74.5,70.7,66.2,95,85,67,30.02,29.93,13,2,13,0.00
2014-9-10,82.8,75.4,69.4,74.6,71.5,67.9,96,88,71,29.94,29.89,13,2,13,0.00
2014-9-11,80.1,72.0,64.8,73.7,68.9,64.5,99,90,77,29.87,29.78,6,1,11,0.15
2014-9-12,83.1,75.4,66.9,75.8,71.2,66.3,99,88,70,29.84,29.80,6,2,11,0.18
2014-9-13,82.6,74.9,66.0,72.4,64.8,60.7,84,71,59,29.96,29.91,14,2,14,0.00
2014-9-14,80.8,72.2,63.5,67.6,64.2,59.9,89,77,59,29.98,29.92,7,1,10,0.00
2014-9-15,79.7,69.1,63.5,68.2,63.0,59.6,88,81,66,30.01,29.95,7,1,7,0.00
2014-9-16,83.8,74.0,65.3,69.8,65.7,61.1,92,76,60,29.96,29.87,10,2,11,0.00
2014-9-17,83.3,74.2,66.7,67.5,64.3,60.0,83,72,56,29.97,29.89,6,1,7,0.00
2014-9-18,84.6,75.6,67.8,69.8,66.8,62.5,85,75,59,30.02,29.94,8,1,8,0.00
2014-9-19,87.4,78.6,70.0,73.3,70.2,65.6,88,76,62,30.08,29.99,10,1,10,0.00
2014-9-20,90.7,81.3,72.1,76.1,72.8,68.1,88,76,62,30.05,29.96,8,2,8,0.00
2014-9-21,85.3,79.1,74.1,77.6,75.3,71.8,95,89,75,30.01,29.86,6,1,11,0.00
2014-9-22,82.8,76.9,73.2,76.8,71.6,66.8,98,84,75,29.88,29.76,11,1,11,0.00
2014-9-23,79.0,71.4,64.9,69.1,56.0,48.9,88,60,40,29.99,29.76,17,3,17,0.00
2014-9-24,77.5,69.0,62.1,67.2,61.0,51.3,93,76,61,30.02,29.92,13,2,13,0.05
2014-9-25,76.8,69.6,66.0,72.6,67.0,64.2,95,92,83,29.97,29.92,13,2,13,0.01
2014-9-26,78.1,70.1,63.1,62.7,56.9,49.8,94,64,47,30.14,29.96,13,2,16,0.00
2014-9-27,79.5,69.1,61.0,59.5,55.7,50.8,73,63,50,30.26,30.13,15,3,15,0.00
2014-9-28,79.5,70.5,62.6,61.5,57.8,53.0,78,65,51,30.30,30.22,14,3,14,0.00
2014-9-29,134.4,108.0,60.6,61.9,23.7,2.7,75,27,1,30.36,27.93,8,2,8,0.11
2014-9-30,134.4,87.6,61.9,99.9,46.8,2.7,84,55,1,30.31,27.93,9,2,9,0.00
2014-10-1,79.0,67.4,60.6,68.3,61.7,56.3,90,82,69,30.25,29.94,8,1,8,0.00
2014-10-2,72.9,68.8,64.4,66.5,64.4,61.4,91,86,79,30.13,30.10,6,1,6,0.06
2014-10-3,78.4,71.1,64.8,64.1,60.9,57.5,83,71,59,30.08,29.98,11,2,11,0.00
2014-10-4,78.3,70.2,64.0,64.6,61.4,57.6,82,74,63,29.98,29.88,11,2,11,0.00
2014-10-5,78.8,71.3,65.1,63.4,61.4,59.5,83,72,58,29.91,29.83,13,2,15,0.00
2014-10-6,80.1,71.0,63.9,65.3,62.6,58.9,89,76,54,29.98,29.85,8,2,11,0.00
2014-10-7,77.9,69.7,62.2,68.4,63.2,58.9,92,80,61,30.10,29.98,11,1,11,0.00
2014-10-8,80.2,70.8,61.5,66.9,62.8,57.3,87,77,62,30.12,30.03,6,1,8,0.00
2014-10-9,80.1,68.4,62.6,68.5,62.9,59.6,90,83,65,30.09,30.04,8,1,8,0.00
2014-10-10,82.6,71.1,63.3,68.3,63.7,60.3,90,78,58,30.08,30.00,6,1,8,0.00
2014-10-11,82.4,69.4,62.6,68.6,62.7,58.0,87,80,60,30.04,29.98,6,1,6,0.00
2014-10-12,81.1,71.9,63.5,71.3,66.4,59.2,95,83,71,30.02,29.96,3,0,6,0.00
2014-10-13,83.8,72.7,64.9,72.0,65.9,62.4,96,80,56,29.98,29.90,10,1,10,0.00
2014-10-14,87.4,75.2,65.5,69.4,63.8,61.3,87,69,51,29.91,29.76,6,1,6,0.00
2014-10-15,85.1,75.2,71.6,70.6,67.2,62.2,92,77,57,29.90,29.74,10,1,10,0.00
2014-10-16,79.7,73.9,69.6,71.1,68.1,66.0,92,82,71,30.04,29.90,12,2,12,0.00
2014-10-17,79.3,72.9,70.0,71.9,69.4,67.5,94,89,76,30.07,30.01,12,2,12,0.00
2014-10-18,82.0,72.9,65.8,71.6,68.0,64.4,97,85,66,30.18,30.08,7,1,8,0.00
2014-10-19,83.8,73.3,65.8,68.7,65.2,61.9,92,77,57,30.20,30.15,6,1,8,0.00
2014-10-20,79.2,71.1,64.4,71.7,66.4,61.1,93,85,72,30.17,29.98,7,1,11,0.00
2014-10-21,77.0,71.8,66.0,70.3,67.4,64.5,96,86,75,29.98,29.65,9,2,15,0.00
2014-10-22,77.4,70.9,60.4,69.2,63.8,48.2,91,79,62,29.65,29.49,15,4,15,0.01
2014-10-23,66.6,57.2,50.7,48.9,44.0,42.1,75,62,43,29.74,29.58,12,2,12,0.00
2014-10-24,62.6,57.0,52.3,52.9,48.8,43.6,81,74,69,29.90,29.69,8,1,12,0.00
2014-10-25,67.5,59.0,53.6,54.6,49.7,46.6,84,72,58,30.06,29.89,12,2,12,0.00
2014-10-26,69.8,60.8,52.9,54.0,50.1,45.9,78,68,56,30.13,30.05,14,2,14,0.00
2014-10-27,68.5,60.0,54.3,53.2,49.7,47.0,79,69,56,30.14,30.05,15,2,15,0.00
2014-10-28,68.2,60.1,54.0,53.8,50.8,47.6,84,72,58,30.08,29.99,12,1,12,0.00
2014-10-29,70.3,60.4,53.6,55.7,51.2,48.3,85,73,54,30.07,29.99,4,1,7,0.00
2014-10-30,70.5,61.2,53.6,56.3,50.3,46.4,84,68,53,30.12,30.04,8,1,10,0.00
2014-10-31,69.8,60.8,53.4,52.1,49.0,45.7,78,66,51,30.15,30.09,16,3,16,0.00
2014-11-1,71.6,60.7,51.1,52.5,49.0,44.6,81,66,49,30.18,30.11,13,1,13,0.00
2014-11-2,70.3,59.4,50.4,57.1,52.6,45.2,91,79,61,30.17,30.09,8,1,10,0.00
2014-11-3,69.6,59.5,50.0,60.9,54.1,50.0,100,83,67,30.15,29.96,9,1,9,0.00
2014-11-4,69.8,62.7,54.3,63.2,57.9,50.8,91,85,73,29.96,29.73,13,2,14,0.07
2014-11-5,73.9,70.9,62.4,66.8,63.4,59.8,91,77,65,29.76,29.68,20,4,20,0.00
2014-11-6,77.5,71.7,63.3,66.0,62.5,59.0,93,74,58,29.75,29.63,10,3,21,0.11
2014-11-7,71.8,65.3,60.1,62.6,58.2,54.7,93,78,65,29.70,29.58,17,2,17,0.13
2014-11-8,74.1,67.5,60.4,60.4,58.1,54.9,83,72,61,29.74,29.70,10,3,11,0.00
2014-11-9,70.5,63.2,56.8,63.0,58.8,54.4,93,86,75,29.99,29.83,5,0,8,0.00
2014-11-10,72.7,64.0,56.5,64.3,58.8,53.8,94,84,63,30.28,29.91,8,1,8,0.00
2014-11-11,74.5,65.0,59.0,62.6,58.6,55.4,89,80,61,29.92,29.58,6,1,7,0.15
2014-11-12,68.4,60.9,56.7,65.3,59.1,55.8,99,94,84,29.65,29.57,9,1,9,0.37
2014-11-13,66.2,60.3,53.1,65.1,57.7,52.0,99,92,79,29.85,29.65,12,2,12,0.40
2014-11-14,71.4,60.8,52.9,61.6,56.2,52.1,97,85,67,29.90,29.84,6,0,6,0.00
2014-11-15,68.2,61.5,54.9,62.3,58.5,52.6,99,90,79,29.88,29.72,11,1,11,0.43
2014-11-16,70.2,61.3,55.0,66.1,57.9,53.6,99,89,72,29.83,29.72,10,1,18,0.43
2014-11-17,66.9,62.3,55.6,61.9,58.8,54.5,97,88,81,29.87,29.69,18,3,18,0.15
2014-11-18,65.8,59.3,53.8,61.6,55.0,50.9,96,86,71,29.89,29.79,17,1,10,0.08
2014-11-19,66.4,57.7,50.4,61.3,53.0,47.8,96,85,70,30.13,29.88,18,2,18,0.11
2014-11-20,73.0,56.1,47.8,63.5,47.8,43.2,92,75,57,30.19,30.05,8,1,8,0.00
2014-11-21,65.5,55.7,47.5,52.1,48.1,43.2,85,76,59,30.18,30.11,6,1,6,0.00
2014-11-22,66.9,55.8,47.1,53.3,48.6,43.3,87,77,59,30.21,30.14,2,0,4,0.00
2014-11-23,69.6,57.3,50.2,57.2,51.1,47.4,91,80,61,30.27,30.17,2,0,4,0.00
2014-11-24,68.2,57.1,50.0,58.5,52.8,47.7,95,86,70,30.20,30.08,4,0,4,0.00
2014-11-25,68.5,57.8,49.8,59.8,54.5,48.4,96,89,72,30.11,29.95,5,0,5,0.00
2014-11-26,63.9,57.4,53.1,60.6,56.4,52.8,99,96,88,29.99,29.88,4,0,4,0.22
2014-11-27,69.1,58.6,53.1,66.3,57.0,52.6,99,95,83,29.93,29.82,6,0,6,0.00
2014-11-28,71.8,62.6,53.6,62.8,57.2,53.0,98,83,67,29.84,29.76,5,0,5,0.00
2014-11-29,69.4,64.0,59.9,63.7,59.3,55.1,89,85,82,29.86,29.78,6,1,8,0.00
2014-11-30,73.2,66.3,59.0,63.1,59.2,54.2,93,78,68,29.81,29.59,9,1,15,0.14
2014-12-1,70.9,64.3,57.4,63.8,59.6,55.7,95,85,74,29.59,29.50,24,4,24,0.18
2014-12-2,64.4,57.9,55.6,60.4,56.9,54.3,99,97,84,29.60,29.49,13,3,13,1.28
2014-12-3,65.7,58.7,53.6,62.8,57.1,53.3,99,95,87,29.82,29.59,6,0,10,0.38
2014-12-4,61.0,57.3,54.1,60.7,57.1,53.9,99,99,99,29.90,29.81,6,1,8,0.17
2014-12-5,59.7,55.2,51.4,58.9,54.7,51.2,99,98,95,29.89,29.83,8,0,2,0.07
2014-12-6,61.2,53.5,47.8,60.9,52.6,47.6,99,97,89,29.91,29.85,8,0,8,0.15
2014-12-7,60.6,52.2,48.0,57.4,49.8,46.1,99,92,78,29.89,29.77,8,0,7,0.06
2014-12-8,61.3,52.7,46.8,52.1,46.7,42.2,91,80,69,29.83,29.69,10,1,10,0.00
2014-12-9,57.7,52.3,45.9,47.7,43.2,40.8,86,71,61,29.90,29.68,18,4,18,0.00
2014-12-10,56.7,53.7,50.2,45.0,43.5,41.5,73,68,64,29.98,29.91,18,4,18,0.00
2014-12-11,56.7,48.6,42.4,47.6,42.5,38.5,88,80,69,30.03,29.91,7,0,7,0.00
2014-12-12,60.3,48.8,42.3,46.6,40.4,36.7,89,74,52,30.16,30.03,4,0,4,0.00
2014-12-13,62.4,52.8,42.4,53.9,47.0,38.4,88,81,71,30.22,30.14,8,1,8,0.00
2014-12-14,63.1,53.9,48.6,54.1,48.2,44.9,87,81,67,30.19,30.10,5,0,5,0.00
2014-12-15,60.6,53.5,48.6,53.2,48.7,44.9,89,84,76,30.14,29.84,4,0,4,0.01
2014-12-16,56.7,53.3,50.2,55.0,52.0,49.8,99,95,88,29.84,29.67,15,1,15,0.46
2014-12-17,63.3,53.4,47.3,59.4,51.2,46.2,99,92,79,29.88,29.77,8,0,4,0.08
2014-12-18,63.5,53.3,45.5,56.9,48.2,42.9,97,84,66,30.14,29.88,8,1,8,0.00
2014-12-19,62.2,52.5,45.3,53.8,48.7,43.0,95,87,73,30.20,30.13,4,0,6,0.00
2014-12-20,63.1,55.8,48.4,59.0,53.9,47.0,99,93,83,30.19,30.07,6,0,6,0.04
2014-12-21,57.9,51.7,49.3,57.6,51.4,49.0,99,99,99,30.21,30.10,4,1,4,0.01
2014-12-22,61.5,50.8,44.1,45.1,41.2,37.0,88,71,52,30.43,30.33,12,0,5,0.00
2014-12-23,60.8,54.4,44.1,54.2,49.3,41.3,100,83,71,30.40,30.27,11,1,11,0.00
2014-12-24,56.8,54.0,51.3,50.9,49.0,46.9,88,83,77,30.32,30.17,4,0,4,0.00
2014-12-25,53.1,51.2,50.2,46.9,45.9,45.1,85,82,79,30.19,30.16,4,1,4,0.00
2014-12-26,55.6,54.6,51.3,51.1,50.7,48.7,91,86,85,29.95,29.90,4,2,5,0.00
2014-12-27,55.9,50.8,41.4,53.4,41.5,31.2,98,71,50,30.03,29.35,18,3,18,0.21
2014-12-28,54.5,47.6,40.5,51.2,43.3,33.5,100,85,76,29.75,29.31,11,1,11,0.22
2014-12-29,45.5,41.8,39.0,42.8,30.4,27.1,100,64,59,30.05,29.75,24,7,24,0.00
2014-12-30,39.9,34.0,28.4,26.9,24.5,21.1,90,69,50,30.11,29.97,24,6,24,0.00
2014-12-31,42.1,36.9,28.6,31.4,28.6,25.1,89,72,62,30.11,29.93,15,4,27,0.01
2015-1-1,48.4,43.8,40.8,35.3,32.1,29.5,73,64,54,30.31,30.11,20,4,20,0.00
2015-1-2,56.1,46.2,40.5,43.4,38.5,34.0,85,75,61,30.37,30.29,17,1,17,0.00